Time;durP1;ratioP1;P1;durP2;ratioP2;P2;SDS_P1;SDS_P2;PMS_P1;PMS_P2;Temp;Humidity;BMP_temperature;BMP_pressure;BME280_temperature;BME280_humidity;BME280_pressure;Samples;Min_cycle;Max_cycle;Signal;HPM_P1;HPM_P2
2022/05/15 00:02:44;;;;;;;5.13;3.92;;;24.70;1.00;;;;;;5051668;28;20036;-46
2022/05/15 00:05:10;;;;;;;9.15;4.40;;;24.70;1.00;;;;;;5052432;28;20029;-44
2022/05/15 00:07:36;;;;;;;7.20;4.40;;;24.80;1.00;;;;;;5055340;28;20070;-44
2022/05/15 00:10:06;;;;;;;10.80;4.13;;;24.70;1.00;;;;;;5054160;28;20430;-46
2022/05/15 00:12:32;;;;;;;5.70;4.18;;;24.70;1.00;;;;;;5055277;28;20428;-45
2022/05/15 00:14:58;;;;;;;5.85;4.07;;;24.60;1.00;;;;;;5052507;28;20048;-43
2022/05/15 00:17:23;;;;;;;7.28;4.60;;;24.60;1.00;;;;;;5054808;28;20025;-43
2022/05/15 00:19:49;;;;;;;8.88;4.45;;;24.60;1.00;;;;;;5053731;28;20404;-43
2022/05/15 00:22:15;;;;;;;6.50;3.95;;;24.60;1.00;;;;;;5053485;28;20112;-44
2022/05/15 00:24:41;;;;;;;5.97;4.32;;;24.60;1.00;;;;;;5053603;28;20064;-45
2022/05/15 00:27:07;;;;;;;5.43;4.20;;;24.50;1.00;;;;;;5054639;28;20186;-45
2022/05/15 00:29:33;;;;;;;4.15;3.75;;;24.50;1.00;;;;;;5054007;28;20060;-45
2022/05/15 00:31:58;;;;;;;7.55;4.35;;;24.50;1.00;;;;;;5053194;28;20028;-45
2022/05/15 00:34:24;;;;;;;6.40;4.60;;;24.50;1.00;;;;;;5054028;28;20033;-45
2022/05/15 00:36:50;;;;;;;7.75;3.90;;;24.40;1.00;;;;;;5054608;28;20027;-45
2022/05/15 00:39:17;;;;;;;8.02;4.45;;;24.40;1.00;;;;;;5054188;28;20112;-45
2022/05/15 00:41:43;;;;;;;6.68;4.38;;;24.40;1.00;;;;;;5054342;28;20390;-43
2022/05/15 00:44:10;;;;;;;7.35;4.50;;;24.40;1.00;;;;;;5052807;28;20052;-42
2022/05/15 00:46:39;;;;;;;6.43;4.55;;;24.40;1.00;;;;;;5052402;28;20032;-44
2022/05/15 00:49:08;;;;;;;6.32;3.58;;;24.40;1.00;;;;;;5054136;28;20468;-47
2022/05/15 00:51:36;;;;;;;8.60;4.80;;;24.40;1.00;;;;;;5053362;28;20029;-44
2022/05/15 00:54:16;;;;;;;5.50;4.55;;;24.40;1.00;;;;;;5054333;28;20040;-44
2022/05/15 00:56:48;;;;;;;6.32;4.20;;;24.30;1.00;;;;;;5053525;28;20052;-46
2022/05/15 00:59:17;;;;;;;7.15;3.92;;;24.30;1.00;;;;;;5053853;28;20378;-44
2022/05/15 01:01:43;;;;;;;6.28;4.70;;;24.30;1.00;;;;;;5053200;28;20419;-47
2022/05/15 01:04:09;;;;;;;6.88;4.78;;;24.30;1.00;;;;;;5053420;28;20135;-44
2022/05/15 01:06:36;;;;;;;9.10;5.05;;;24.30;1.00;;;;;;5051906;28;20115;-44
2022/05/15 01:09:04;;;;;;;7.15;4.63;;;24.20;1.00;;;;;;5053510;28;20456;-44
2022/05/15 01:11:33;;;;;;;8.77;4.90;;;24.30;1.00;;;;;;5067706;28;20394;-44
2022/05/15 01:13:59;;;;;;;6.68;4.60;;;24.20;1.00;;;;;;5068196;28;20036;-45
2022/05/15 01:16:26;;;;;;;7.70;5.13;;;24.20;1.00;;;;;;5052408;28;20025;-44
2022/05/15 01:18:57;;;;;;;6.47;4.72;;;24.20;1.00;;;;;;5053553;28;20395;-46
2022/05/15 01:21:25;;;;;;;10.27;4.82;;;24.20;1.00;;;;;;5068204;28;20035;-44
2022/05/15 01:23:51;;;;;;;6.43;4.95;;;24.20;1.00;;;;;;5053553;28;20033;-45
2022/05/15 01:26:17;;;;;;;9.75;5.45;;;24.20;1.00;;;;;;5068383;28;20112;-45
2022/05/15 01:28:46;;;;;;;8.10;5.03;;;24.20;1.00;;;;;;5052902;28;20033;-46
2022/05/15 01:31:12;;;;;;;8.98;4.53;;;24.10;1.00;;;;;;5053049;28;20063;-44
2022/05/15 01:33:39;;;;;;;7.70;5.25;;;24.10;1.00;;;;;;5053940;28;20101;-45
2022/05/15 01:36:06;;;;;;;6.68;4.80;;;24.10;1.00;;;;;;5051341;28;20029;-44
2022/05/15 01:38:32;;;;;;;7.38;5.93;;;24.10;1.00;;;;;;5053532;28;20035;-44
2022/05/15 01:40:58;;;;;;;8.95;4.88;;;24.10;1.00;;;;;;5052741;28;20035;-44
2022/05/15 01:43:23;;;;;;;8.35;5.18;;;24.10;1.00;;;;;;5052722;28;20238;-44
2022/05/15 01:45:49;;;;;;;9.23;5.20;;;24.10;1.00;;;;;;5052646;28;20032;-44
2022/05/15 01:48:18;;;;;;;9.35;5.22;;;24.10;1.00;;;;;;5051902;28;20060;-45
2022/05/15 01:50:43;;;;;;;10.43;6.05;;;24.10;1.00;;;;;;5047680;28;20056;-44
2022/05/15 01:53:09;;;;;;;7.90;4.82;;;24.10;1.00;;;;;;5033200;28;20029;-44
2022/05/15 01:55:35;;;;;;;8.52;5.13;;;24.10;1.00;;;;;;5039978;28;20033;-45
2022/05/15 01:58:01;;;;;;;7.85;5.38;;;24.10;1.00;;;;;;5053611;28;20029;-44
2022/05/15 02:00:27;;;;;;;7.55;4.80;;;24.00;1.00;;;;;;5052559;28;20447;-45
2022/05/15 02:02:53;;;;;;;8.95;4.80;;;24.00;1.00;;;;;;5052214;28;20031;-44
2022/05/15 02:05:21;;;;;;;8.48;5.05;;;24.00;1.00;;;;;;5052239;28;20037;-44
2022/05/15 02:07:48;;;;;;;5.60;5.00;;;24.00;1.00;;;;;;5068108;28;20021;-44
2022/05/15 02:10:15;;;;;;;6.40;5.78;;;23.90;1.00;;;;;;5052035;28;20029;-47
2022/05/15 02:12:40;;;;;;;9.10;5.70;;;23.90;1.00;;;;;;5051889;28;20513;-44
2022/05/15 02:15:07;;;;;;;9.07;4.75;;;23.90;1.00;;;;;;5051864;28;20068;-47
2022/05/15 02:17:33;;;;;;;6.80;5.15;;;23.90;1.00;;;;;;5051672;28;20059;-44
2022/05/15 02:19:59;;;;;;;6.32;4.82;;;23.90;1.00;;;;;;5052483;28;20537;-44
2022/05/15 02:22:25;;;;;;;6.88;5.40;;;23.90;1.00;;;;;;5052029;28;20112;-45
2022/05/15 02:24:51;;;;;;;9.73;5.63;;;23.80;1.00;;;;;;5052275;28;20033;-44
2022/05/15 02:27:16;;;;;;;12.20;5.35;;;23.90;1.00;;;;;;5050796;28;20029;-44
2022/05/15 02:29:42;;;;;;;12.25;5.95;;;23.80;1.00;;;;;;5067237;28;20078;-43
2022/05/15 02:32:08;;;;;;;7.55;5.78;;;23.80;1.00;;;;;;5051348;28;20100;-44
2022/05/15 02:34:34;;;;;;;6.93;5.20;;;23.80;1.00;;;;;;5052597;28;20022;-43
2022/05/15 02:37:00;;;;;;;5.05;4.43;;;23.80;1.00;;;;;;5045951;28;20440;-44
2022/05/15 02:39:25;;;;;;;10.07;4.93;;;23.70;1.00;;;;;;5039413;28;20466;-43
2022/05/15 02:41:51;;;;;;;8.65;4.95;;;23.70;1.00;;;;;;5048670;28;20169;-45
2022/05/15 02:44:17;;;;;;;5.88;5.28;;;23.70;1.00;;;;;;5047446;28;20037;-44
2022/05/15 02:46:42;;;;;;;8.35;4.93;;;23.70;1.00;;;;;;5047904;28;20036;-46
2022/05/15 02:51:52;;;;;;;11.40;5.63;;;23.70;1.00;;;;;;5051670;28;20129;-44
2022/05/15 02:54:18;;;;;;;10.57;5.28;;;23.70;1.00;;;;;;5035515;28;20483;-43
2022/05/15 02:56:43;;;;;;;6.20;4.57;;;23.70;1.00;;;;;;5044027;28;20033;-45
2022/05/15 02:59:09;;;;;;;6.90;5.20;;;23.60;1.00;;;;;;5036084;28;20030;-44
2022/05/15 03:01:36;;;;;;;8.35;5.00;;;23.60;1.00;;;;;;5042716;28;20029;-44
2022/05/15 03:04:20;;;;;;;6.45;4.45;;;23.60;1.00;;;;;;5051364;28;20033;-44
2022/05/15 03:06:46;;;;;;;6.88;4.60;;;23.60;1.00;;;;;;5051018;28;20033;-43
2022/05/15 03:09:11;;;;;;;6.53;4.82;;;23.50;1.00;;;;;;5050659;28;20029;-44
2022/05/15 03:11:37;;;;;;;5.25;4.63;;;23.50;1.00;;;;;;5051407;28;20040;-47
2022/05/15 03:14:02;;;;;;;7.10;4.82;;;23.50;1.00;;;;;;5051953;28;20079;-45
2022/05/15 03:16:29;;;;;;;10.40;5.85;;;23.50;1.00;;;;;;5051295;28;20037;-44
2022/05/15 03:18:55;;;;;;;8.45;5.38;;;23.50;1.00;;;;;;5051398;28;20013;-43
2022/05/15 03:21:29;;;;;;;7.78;4.97;;;23.50;1.00;;;;;;5051102;28;20032;-44
2022/05/15 03:24:04;;;;;;;6.07;5.00;;;23.50;1.00;;;;;;5051882;28;20029;-44
2022/05/15 03:26:33;;;;;;;11.93;5.50;;;23.40;1.00;;;;;;5051304;28;20021;-43
2022/05/15 03:28:59;;;;;;;8.25;4.82;;;23.30;1.00;;;;;;5051899;28;20112;-43
2022/05/15 03:31:25;;;;;;;8.80;5.40;;;23.40;1.00;;;;;;5051294;28;20044;-43
2022/05/15 03:33:50;;;;;;;8.32;5.45;;;23.40;1.00;;;;;;5051533;28;20118;-44
2022/05/15 03:36:16;;;;;;;8.45;5.30;;;23.30;1.00;;;;;;5062811;28;20025;-43
2022/05/15 03:38:44;;;;;;;8.15;5.38;;;23.30;1.00;;;;;;5050948;28;20040;-44
2022/05/15 03:41:10;;;;;;;6.43;4.70;;;23.30;1.00;;;;;;5054243;28;20017;-44
2022/05/15 03:43:36;;;;;;;7.90;5.53;;;23.30;1.00;;;;;;5055448;28;20032;-45
2022/05/15 03:46:03;;;;;;;5.68;4.40;;;23.30;1.00;;;;;;5053829;28;20032;-45
2022/05/15 03:48:28;;;;;;;5.80;5.03;;;23.30;1.00;;;;;;5054463;28;20040;-46
2022/05/15 03:50:54;;;;;;;6.28;5.28;;;23.30;1.00;;;;;;5054526;28;20017;-45
2022/05/15 03:53:19;;;;;;;7.25;4.95;;;23.30;1.00;;;;;;5055335;28;20060;-44
2022/05/15 03:55:45;;;;;;;7.13;4.93;;;23.30;1.00;;;;;;5054606;28;20032;-48
2022/05/15 03:58:11;;;;;;;5.85;5.22;;;23.30;1.00;;;;;;5055720;28;20029;-48
2022/05/15 04:00:37;;;;;;;8.30;5.43;;;23.30;1.00;;;;;;5054556;28;20067;-44
2022/05/15 04:03:03;;;;;;;10.00;5.60;;;23.30;1.00;;;;;;5055021;28;22026;-43
2022/05/15 04:05:29;;;;;;;7.15;5.65;;;23.20;1.00;;;;;;5054952;28;20378;-44
2022/05/15 04:07:56;;;;;;;10.02;7.15;;;23.30;1.00;;;;;;5054767;28;20063;-43
2022/05/15 04:10:23;;;;;;;11.65;8.20;;;23.20;1.00;;;;;;5055230;28;20029;-45
2022/05/15 04:12:49;;;;;;;10.63;8.63;;;23.20;1.00;;;;;;5054287;28;20054;-44
2022/05/15 04:15:16;;;;;;;9.98;8.98;;;23.20;1.00;;;;;;5055218;28;20037;-44
2022/05/15 04:17:47;;;;;;;10.52;9.52;;;23.20;1.00;;;;;;5054134;28;20016;-44
2022/05/15 04:20:15;;;;;;;16.70;13.25;;;23.20;1.00;;;;;;5054905;28;20048;-44
2022/05/15 04:22:40;;;;;;;13.35;12.05;;;23.10;1.00;;;;;;5069170;28;20116;-44
2022/05/15 04:25:07;;;;;;;14.88;13.18;;;23.20;1.00;;;;;;5054729;28;20108;-43
2022/05/15 04:27:33;;;;;;;14.73;13.23;;;23.20;1.00;;;;;;5054067;28;20465;-46
2022/05/15 04:29:59;;;;;;;14.52;12.30;;;23.20;1.00;;;;;;5053390;28;20104;-43
2022/05/15 04:32:25;;;;;;;11.75;10.57;;;23.30;1.00;;;;;;5054127;28;20450;-44
2022/05/15 04:34:50;;;;;;;11.05;8.63;;;23.20;1.00;;;;;;5054821;28;20463;-46
2022/05/15 04:37:16;;;;;;;13.23;8.70;;;23.20;1.00;;;;;;5053999;28;20394;-44
2022/05/15 04:39:42;;;;;;;12.93;7.03;;;23.20;1.00;;;;;;5054606;28;20549;-43
2022/05/15 04:42:08;;;;;;;10.60;6.93;;;23.20;1.00;;;;;;5053608;28;20108;-43
2022/05/15 04:44:34;;;;;;;10.65;9.20;;;23.10;1.00;;;;;;5054474;28;20120;-44
2022/05/15 04:46:59;;;;;;;14.18;11.70;;;23.10;1.00;;;;;;5053448;28;20124;-43
2022/05/15 04:49:25;;;;;;;14.00;12.27;;;23.20;1.00;;;;;;5054320;28;20053;-45
2022/05/15 04:51:51;;;;;;;15.70;14.10;;;23.20;1.00;;;;;;5052403;28;20052;-44
2022/05/15 04:54:16;;;;;;;15.00;13.00;;;23.20;1.00;;;;;;5054183;28;20176;-45
2022/05/15 04:56:42;;;;;;;14.13;12.15;;;23.20;1.00;;;;;;5052636;28;20025;-47
2022/05/15 04:59:08;;;;;;;15.63;12.10;;;23.20;1.00;;;;;;5054421;28;20099;-46
2022/05/15 05:01:33;;;;;;;13.75;11.35;;;23.20;1.00;;;;;;5053159;28;20481;-44
2022/05/15 05:03:59;;;;;;;14.05;11.98;;;23.20;1.00;;;;;;5054383;28;20044;-44
2022/05/15 05:06:27;;;;;;;12.40;10.60;;;23.20;1.00;;;;;;5053176;28;20025;-43
2022/05/15 05:08:53;;;;;;;13.00;11.55;;;23.20;1.00;;;;;;5054265;28;20355;-44
2022/05/15 05:11:20;;;;;;;13.60;12.23;;;23.20;1.00;;;;;;5053105;28;20017;-43
2022/05/15 05:13:45;;;;;;;15.32;11.05;;;23.20;1.00;;;;;;5053964;28;20029;-43
2022/05/15 05:16:11;;;;;;;13.43;12.02;;;23.20;1.00;;;;;;5052983;28;20436;-43
2022/05/15 05:18:37;;;;;;;16.30;12.77;;;23.20;1.00;;;;;;5053709;28;20041;-44
2022/05/15 05:21:04;;;;;;;19.20;13.07;;;23.30;1.00;;;;;;5052469;28;20033;-44
2022/05/15 05:23:29;;;;;;;17.83;15.88;;;23.30;1.00;;;;;;5053494;28;20036;-43
2022/05/15 05:25:55;;;;;;;16.98;14.40;;;23.20;1.00;;;;;;5051958;28;20037;-46
2022/05/15 05:28:21;;;;;;;16.55;14.95;;;23.30;1.00;;;;;;5053859;28;20031;-47
2022/05/15 05:30:47;;;;;;;18.52;15.00;;;23.30;1.00;;;;;;5053374;28;20032;-44
2022/05/15 05:33:13;;;;;;;18.23;14.95;;;23.30;1.00;;;;;;5052758;28;20048;-43
2022/05/15 05:35:39;;;;;;;19.58;17.58;;;23.30;1.00;;;;;;5053501;28;20530;-46
2022/05/15 05:38:06;;;;;;;19.65;16.27;;;23.30;1.00;;;;;;5052625;28;20067;-44
2022/05/15 05:40:31;;;;;;;20.05;16.85;;;23.30;1.00;;;;;;5053700;28;20021;-44
2022/05/15 05:42:57;;;;;;;19.10;16.55;;;23.30;1.00;;;;;;5052337;28;20538;-45
2022/05/15 05:45:23;;;;;;;17.30;14.85;;;23.30;1.00;;;;;;5053593;28;20024;-44
2022/05/15 05:47:50;;;;;;;17.77;13.73;;;23.30;1.00;;;;;;5051483;28;20458;-44
2022/05/15 05:50:18;;;;;;;19.80;16.70;;;23.40;1.00;;;;;;5052988;28;20116;-45
2022/05/15 05:52:44;;;;;;;17.05;15.27;;;23.30;1.00;;;;;;5052390;28;20037;-45
2022/05/15 05:55:13;;;;;;;17.20;15.48;;;23.40;1.00;;;;;;5067640;28;20025;-44
2022/05/15 05:57:41;;;;;;;17.10;15.35;;;23.30;1.00;;;;;;5052509;28;20033;-44
2022/05/15 06:00:11;;;;;;;20.80;14.27;;;23.40;1.00;;;;;;5053169;28;20024;-45
2022/05/15 06:02:36;;;;;;;16.52;13.02;;;23.40;1.00;;;;;;5051758;28;20125;-43
2022/05/15 06:05:03;;;;;;;15.18;12.30;;;23.40;1.00;;;;;;5052772;28;20043;-44
2022/05/15 06:07:30;;;;;;;15.45;13.27;;;23.50;1.00;;;;;;5052023;28;20025;-43
2022/05/15 06:09:56;;;;;;;16.80;14.48;;;23.40;1.00;;;;;;5053024;28;20111;-45
2022/05/15 06:12:24;;;;;;;17.42;14.15;;;23.40;1.00;;;;;;5052212;28;20526;-44
2022/05/15 06:14:51;;;;;;;14.23;12.18;;;23.40;1.00;;;;;;5052931;28;20028;-43
2022/05/15 06:17:21;;;;;;;16.35;12.63;;;23.40;1.00;;;;;;5052064;28;20043;-46
2022/05/15 06:19:47;;;;;;;14.63;11.75;;;23.40;1.00;;;;;;5052897;28;20516;-44
2022/05/15 06:22:12;;;;;;;12.52;11.27;;;23.50;1.00;;;;;;5051395;28;20025;-49
2022/05/15 06:24:38;;;;;;;13.52;11.68;;;23.50;1.00;;;;;;5050612;28;20132;-43
2022/05/15 06:27:04;;;;;;;13.70;12.13;;;23.50;1.00;;;;;;5051617;28;20021;-46
2022/05/15 06:29:31;;;;;;;14.70;13.13;;;23.50;1.00;;;;;;5052794;28;20112;-42
2022/05/15 06:31:57;;;;;;;16.10;13.57;;;23.60;1.00;;;;;;5051799;28;20139;-44
2022/05/15 06:34:23;;;;;;;15.65;13.18;;;23.50;1.00;;;;;;5053023;28;20022;-47
2022/05/15 06:36:48;;;;;;;13.90;12.27;;;23.60;1.00;;;;;;5050895;28;20102;-44
2022/05/15 06:39:14;;;;;;;14.55;12.27;;;23.60;1.00;;;;;;5052371;28;20050;-44
2022/05/15 06:41:40;;;;;;;14.55;12.05;;;23.60;1.00;;;;;;5066364;28;20511;-44
2022/05/15 06:44:06;;;;;;;19.27;13.45;;;23.70;1.00;;;;;;5051912;28;20044;-45
2022/05/15 06:46:32;;;;;;;14.77;12.63;;;23.70;1.00;;;;;;5051122;28;20017;-44
2022/05/15 06:48:58;;;;;;;15.80;13.80;;;23.70;1.00;;;;;;5051859;28;20125;-47
2022/05/15 06:51:24;;;;;;;15.85;14.15;;;23.80;1.00;;;;;;5050312;28;20502;-43
2022/05/15 06:53:50;;;;;;;15.35;13.70;;;23.80;1.00;;;;;;5052370;28;20032;-47
2022/05/15 06:59:02;;;;;;;16.45;14.85;;;23.80;1.00;;;;;;5052477;28;20055;-44
2022/05/15 07:01:28;;;;;;;17.52;15.63;;;23.90;1.00;;;;;;5051252;28;20112;-43
2022/05/15 07:03:54;;;;;;;15.52;13.98;;;23.80;1.00;;;;;;5052015;28;20044;-45
2022/05/15 07:06:20;;;;;;;17.15;13.55;;;23.90;1.00;;;;;;5051591;28;20021;-46
2022/05/15 07:08:45;;;;;;;14.63;13.20;;;23.90;1.00;;;;;;5052002;28;20119;-46
2022/05/15 07:11:12;;;;;;;15.90;14.20;;;24.00;1.00;;;;;;5050676;28;20028;-48
2022/05/15 07:13:38;;;;;;;15.20;13.40;;;24.00;1.00;;;;;;5043682;28;20079;-43
2022/05/15 07:16:05;;;;;;;13.52;12.23;;;24.00;1.00;;;;;;5057398;28;20025;-46
2022/05/15 07:18:31;;;;;;;18.05;13.63;;;24.10;1.00;;;;;;5053877;28;20501;-43
2022/05/15 07:20:56;;;;;;;15.23;13.65;;;24.10;1.00;;;;;;5041665;28;20032;-43
2022/05/15 07:23:22;;;;;;;15.15;12.77;;;24.10;1.00;;;;;;5053284;28;20045;-44
2022/05/15 07:25:49;;;;;;;15.27;13.73;;;24.10;1.00;;;;;;5054706;28;20017;-43
2022/05/15 07:28:15;;;;;;;14.88;13.27;;;24.10;1.00;;;;;;5055100;28;20390;-44
2022/05/15 07:30:41;;;;;;;14.52;12.18;;;24.10;1.00;;;;;;5055991;28;20071;-44
2022/05/15 07:33:08;;;;;;;14.02;11.43;;;24.20;1.00;;;;;;5054919;28;20494;-46
2022/05/15 07:35:34;;;;;;;14.63;13.00;;;24.20;1.00;;;;;;5056195;28;20125;-43
2022/05/15 07:38:00;;;;;;;13.48;12.02;;;24.10;1.00;;;;;;5054877;28;20021;-46
2022/05/15 07:40:25;;;;;;;16.23;14.07;;;24.20;1.00;;;;;;5055612;28;20402;-43
2022/05/15 07:42:51;;;;;;;15.13;12.60;;;24.30;1.00;;;;;;5054736;28;20025;-45
2022/05/15 07:45:17;;;;;;;16.42;14.73;;;24.30;1.00;;;;;;5055619;28;20041;-44
2022/05/15 07:47:43;;;;;;;17.75;14.93;;;24.30;1.00;;;;;;5054383;28;20025;-46
2022/05/15 07:50:10;;;;;;;22.98;20.92;;;24.30;1.00;;;;;;5054557;28;20080;-45
2022/05/15 07:52:36;;;;;;;22.38;20.48;;;24.30;1.00;;;;;;5052737;28;20025;-43
2022/05/15 07:55:05;;;;;;;17.88;15.98;;;24.30;1.00;;;;;;5070888;28;20368;-44
2022/05/15 07:57:33;;;;;;;17.13;15.18;;;24.40;1.00;;;;;;5054561;28;20506;-44
2022/05/15 08:00:00;;;;;;;20.65;17.05;;;24.40;1.00;;;;;;5055118;28;20334;-43
2022/05/15 08:02:26;;;;;;;15.63;14.18;;;24.40;1.00;;;;;;5053970;28;20033;-47
2022/05/15 08:10:19;;;;;;;16.45;14.32;;;24.50;1.00;;;;;;5055639;28;20036;-47
2022/05/15 08:12:45;;;;;;;16.27;14.55;;;24.60;1.00;;;;;;5054085;28;20025;-46
2022/05/15 08:15:11;;;;;;;16.33;14.57;;;24.70;1.00;;;;;;5054775;28;20029;-49
2022/05/15 08:17:37;;;;;;;18.02;15.95;;;24.70;1.00;;;;;;5054219;28;20490;-45
2022/05/15 08:25:32;;;;;;;18.65;16.10;;;24.70;1.00;;;;;;5053961;28;20555;-44
2022/05/15 08:27:57;;;;;;;16.60;14.80;;;24.70;1.00;;;;;;5052792;28;20037;-44
2022/05/15 08:30:23;;;;;;;15.85;14.35;;;24.80;1.00;;;;;;5054650;28;20021;-43
2022/05/15 08:32:53;;;;;;;17.98;14.93;;;24.80;1.00;;;;;;5053613;28;20040;-44
2022/05/15 08:35:18;;;;;;;18.58;15.23;;;24.90;1.00;;;;;;5054875;28;20121;-43
2022/05/15 08:37:44;;;;;;;15.65;13.93;;;24.90;1.00;;;;;;5053714;28;20484;-44
2022/05/15 08:40:11;;;;;;;18.38;14.95;;;25.00;1.00;;;;;;5069928;28;20123;-44
2022/05/15 08:42:42;;;;;;;15.07;13.57;;;25.00;1.00;;;;;;5053493;28;20064;-43
2022/05/15 08:45:14;;;;;;;15.57;13.82;;;25.00;1.00;;;;;;5053005;28;20044;-45
2022/05/15 08:48:02;;;;;;;14.13;12.68;;;25.00;1.00;;;;;;5053428;28;20053;-43
2022/05/15 08:50:34;;;;;;;15.13;13.57;;;25.10;1.00;;;;;;5054109;28;20049;-44
2022/05/15 08:53:06;;;;;;;15.50;13.50;;;25.20;1.00;;;;;;5053626;28;20121;-45
2022/05/15 08:55:36;;;;;;;16.77;12.80;;;25.20;1.00;;;;;;5053422;28;20025;-48
2022/05/15 08:58:20;;;;;;;13.00;11.52;;;25.20;1.00;;;;;;5052764;28;20094;-44
2022/05/15 09:00:52;;;;;;;14.38;11.15;;;25.30;1.00;;;;;;5054281;28;20125;-44
2022/05/15 09:03:22;;;;;;;16.88;13.73;;;25.30;1.00;;;;;;5053052;28;20064;-49
2022/05/15 09:05:48;;;;;;;14.50;13.07;;;25.30;1.00;;;;;;5054025;28;20115;-46
2022/05/15 09:08:31;;;;;;;15.25;13.57;;;25.40;1.00;;;;;;5052678;28;20033;-45
2022/05/15 09:11:03;;;;;;;14.82;12.68;;;25.40;1.00;;;;;;5054111;28;20370;-44
2022/05/15 09:13:39;;;;;;;15.63;14.20;;;25.40;1.00;;;;;;5053183;28;20021;-45
2022/05/15 09:16:33;;;;;;;11.82;10.63;;;25.40;1.00;;;;;;5052940;28;20032;-43
2022/05/15 09:19:01;;;;;;;13.13;10.25;;;25.50;1.00;;;;;;5052436;28;20090;-43
2022/05/15 09:21:27;;;;;;;13.57;12.30;;;25.50;1.00;;;;;;5053733;28;20086;-45
2022/05/15 09:23:55;;;;;;;12.35;10.90;;;25.60;1.00;;;;;;5052661;28;20130;-43
2022/05/15 09:26:45;;;;;;;13.85;12.38;;;25.60;1.00;;;;;;5053617;28;20033;-44
2022/05/15 09:29:23;;;;;;;15.68;11.10;;;25.60;1.00;;;;;;5052635;28;20355;-44
2022/05/15 09:31:49;;;;;;;12.07;9.60;;;25.70;1.00;;;;;;5053416;28;20563;-45
2022/05/15 09:34:21;;;;;;;12.20;11.00;;;25.70;1.00;;;;;;5052859;28;20360;-47
2022/05/15 09:36:49;;;;;;;16.02;11.82;;;25.70;1.00;;;;;;5052342;28;20044;-45
2022/05/15 09:39:24;;;;;;;11.48;10.32;;;25.80;1.00;;;;;;5052425;28;20047;-43
2022/05/15 09:45:00;;;;;;;23.63;16.60;;;25.90;1.00;;;;;;5039195;28;20118;-43
2022/05/15 09:47:31;;;;;;;28.05;22.63;;;25.90;1.00;;;;;;5051507;28;20095;-48
2022/05/15 09:49:57;;;;;;;13.93;11.63;;;26.00;1.00;;;;;;5053067;28;20405;-44
2022/05/15 09:52:42;;;;;;;15.32;12.23;;;26.10;1.00;;;;;;5052320;28;20102;-43
2022/05/15 09:55:11;;;;;;;15.57;13.93;;;26.20;1.00;;;;;;5032988;28;20104;-42
2022/05/15 09:57:37;;;;;;;14.48;12.35;;;26.10;1.00;;;;;;5035908;28;20033;-43
2022/05/15 10:00:10;;;;;;;15.88;14.18;;;26.10;1.00;;;;;;5053115;28;20032;-43
2022/05/15 10:02:51;;;;;;;14.82;11.02;;;26.20;1.00;;;;;;5051873;28;20017;-45
2022/05/15 10:05:22;;;;;;;13.60;11.43;;;26.30;1.00;;;;;;5052919;28;20051;-43
2022/05/15 10:08:05;;;;;;;13.57;12.15;;;26.50;1.00;;;;;;5052170;28;20032;-43
2022/05/15 10:11:10;;;;;;;16.15;14.27;;;26.50;1.00;;;;;;5052941;28;20075;-43
2022/05/15 10:13:46;;;;;;;14.80;13.40;;;26.60;1.00;;;;;;5030712;28;20081;-43
2022/05/15 10:16:25;;;;;;;13.98;12.55;;;26.70;1.00;;;;;;5059720;28;20389;-43
2022/05/15 10:19:00;;;;;;;12.98;11.65;;;26.70;1.00;;;;;;5051853;28;20040;-44
2022/05/15 10:21:40;;;;;;;15.65;14.07;;;26.80;1.00;;;;;;5052841;28;20470;-45
2022/05/15 10:24:18;;;;;;;16.67;14.90;;;26.80;1.00;;;;;;5051477;28;20044;-47
2022/05/15 10:26:58;;;;;;;15.90;13.30;;;26.80;1.00;;;;;;5053021;28;20387;-46
2022/05/15 10:29:36;;;;;;;14.88;13.27;;;26.90;1.00;;;;;;5051645;28;20025;-48
2022/05/15 10:32:28;;;;;;;17.23;15.35;;;26.90;1.00;;;;;;5052344;28;20017;-46
2022/05/15 10:34:53;;;;;;;16.45;13.68;;;27.00;1.00;;;;;;5052804;28;20025;-46
2022/05/15 10:37:42;;;;;;;17.75;15.48;;;27.00;1.00;;;;;;5051528;28;20017;-45
2022/05/15 10:40:24;;;;;;;17.30;15.07;;;27.00;1.00;;;;;;5052401;28;20039;-44
2022/05/15 10:43:20;;;;;;;16.25;14.77;;;27.00;1.00;;;;;;5051468;28;20040;-45
2022/05/15 10:45:51;;;;;;;20.08;15.25;;;27.10;1.00;;;;;;5050659;28;20041;-46
2022/05/15 10:48:54;;;;;;;18.60;15.48;;;26.90;1.00;;;;;;5051474;28;20090;-49
2022/05/15 10:51:23;;;;;;;15.55;13.48;;;27.10;1.00;;;;;;5052139;28;20553;-44
2022/05/15 10:57:24;;;;;;;18.00;12.18;;;27.40;1.00;;;;;;5052424;28;20051;-48
2022/05/15 10:59:54;;;;;;;17.05;15.30;;;27.40;1.00;;;;;;5051224;28;20026;-45
2022/05/15 11:02:45;;;;;;;19.65;15.27;;;27.70;1.00;;;;;;5051839;28;20093;-44
2022/05/15 11:05:38;;;;;;;16.90;14.98;;;27.80;1.00;;;;;;5030699;28;20403;-44
2022/05/15 11:08:31;;;;;;;16.33;14.63;;;28.00;1.00;;;;;;5049110;28;20426;-44
2022/05/15 11:11:16;;;;;;;17.17;15.55;;;28.10;1.00;;;;;;5032187;28;20093;-47
2022/05/15 11:14:17;;;;;;;17.27;15.45;;;28.10;1.00;;;;;;5041899;28;20474;-46
2022/05/15 11:17:01;;;;;;;18.13;16.42;;;28.20;1.00;;;;;;5050437;28;20056;-46
2022/05/15 11:19:44;;;;;;;16.70;13.63;;;28.30;1.00;;;;;;5051036;28;20032;-45
2022/05/15 11:22:34;;;;;;;18.70;16.83;;;28.40;1.00;;;;;;5051965;28;20029;-45
2022/05/15 11:25:20;;;;;;;18.30;15.93;;;28.30;1.00;;;;;;5051432;28;20683;-43
2022/05/15 11:28:12;;;;;;;15.75;14.13;;;28.40;1.00;;;;;;5049284;28;20351;-44
2022/05/15 11:30:41;;;;;;;17.45;15.68;;;28.60;1.00;;;;;;5034895;28;20054;-44
2022/05/15 11:33:30;;;;;;;15.85;14.20;;;28.80;1.00;;;;;;5048073;28;20120;-46
2022/05/15 11:36:11;;;;;;;15.25;13.63;;;29.60;1.00;;;;;;5062202;28;20114;-44
2022/05/15 11:39:00;;;;;;;15.32;13.75;;;29.10;1.00;;;;;;5048969;28;20094;-46
2022/05/15 11:41:36;;;;;;;13.43;12.00;;;29.30;1.00;;;;;;5047887;28;20453;-46
2022/05/15 11:44:07;;;;;;;13.77;12.40;;;29.60;1.00;;;;;;5050906;28;20105;-46
2022/05/15 11:46:45;;;;;;;15.65;12.73;;;29.90;1.00;;;;;;5051652;28;20032;-44
2022/05/15 11:49:22;;;;;;;15.90;14.05;;;30.20;1.00;;;;;;5049619;28;20535;-47
2022/05/15 11:52:14;;;;;;;13.93;12.63;;;30.40;1.00;;;;;;5051869;28;20055;-43
2022/05/15 11:54:46;;;;;;;15.13;13.40;;;30.60;1.00;;;;;;5050749;28;20021;-44
2022/05/15 11:57:13;;;;;;;13.52;12.23;;;30.80;1.00;;;;;;5051621;28;20043;-45
2022/05/15 11:59:50;;;;;;;14.70;13.20;;;31.10;1.00;;;;;;5050890;28;20082;-45
2022/05/15 12:02:20;;;;;;;13.77;12.43;;;31.00;1.00;;;;;;5055014;28;20494;-45
2022/05/15 12:04:46;;;;;;;15.63;13.80;;;30.70;1.00;;;;;;5054669;28;20049;-44
2022/05/15 12:07:15;;;;;;;15.30;13.27;;;31.40;1.00;;;;;;5054417;28;20047;-45
2022/05/15 12:09:40;;;;;;;13.30;12.05;;;31.50;1.00;;;;;;5054690;28;20152;-44
2022/05/15 12:15:18;;;;;;;13.15;11.68;;;33.10;1.00;;;;;;5054541;28;20037;-46
2022/05/15 12:17:49;;;;;;;12.43;11.27;;;33.50;1.00;;;;;;5054645;28;20035;-47
2022/05/15 12:20:30;;;;;;;12.15;10.95;;;33.70;1.00;;;;;;5054925;28;20033;-47
2022/05/15 12:23:05;;;;;;;14.98;13.50;;;34.40;1.00;;;;;;5054669;28;20028;-45
2022/05/15 12:25:46;;;;;;;16.38;12.52;;;34.70;1.00;;;;;;5054872;28;20497;-45
2022/05/15 12:28:52;;;;;;;14.57;13.30;;;34.30;1.00;;;;;;5052781;28;20478;-49
2022/05/15 12:31:37;;;;;;;13.93;12.55;;;33.90;1.00;;;;;;5055047;28;20025;-44
2022/05/15 12:34:11;;;;;;;14.27;12.98;;;33.90;1.00;;;;;;5054063;28;20061;-44
2022/05/15 12:36:44;;;;;;;12.38;10.10;;;33.60;1.00;;;;;;5053039;28;20604;-45
2022/05/15 12:39:15;;;;;;;;;;;33.90;1.00;;;;;;5053342;28;20033;-44
2022/05/15 12:41:44;;;;;;;11.25;10.30;;;34.10;1.00;;;;;;5054739;28;20001;-46
2022/05/15 12:44:11;;;;;;;12.65;11.57;;;33.50;1.00;;;;;;5053651;28;20153;-46
2022/05/15 12:46:40;;;;;;;12.02;11.02;;;34.00;1.00;;;;;;5054307;28;20037;-46
2022/05/15 12:49:08;;;;;;;13.13;11.82;;;35.60;1.00;;;;;;5053417;28;20044;-46
2022/05/15 12:51:40;;;;;;;14.10;12.38;;;33.80;1.00;;;;;;5054215;28;20064;-45
2022/05/15 12:54:28;;;;;;;12.18;10.93;;;33.20;1.00;;;;;;5053473;28;20040;-46
2022/05/15 12:57:01;;;;;;;13.00;11.23;;;32.30;1.00;;;;;;5054538;28;20176;-46
2022/05/15 12:59:27;;;;;;;10.95;9.95;;;34.30;1.00;;;;;;5053263;28;20033;-45
2022/05/15 13:01:53;;;;;;;11.73;10.63;;;36.20;1.00;;;;;;5054015;28;20108;-48
2022/05/15 13:04:24;;;;;;;11.90;10.80;;;36.40;1.00;;;;;;5052344;28;20176;-44
2022/05/15 13:06:54;;;;;;;11.77;10.40;;;36.10;1.00;;;;;;5052513;28;20025;-44
2022/05/15 13:09:30;;;;;;;12.32;9.93;;;35.60;1.00;;;;;;5052636;28;20033;-45
2022/05/15 13:11:59;;;;;;;11.65;10.63;;;35.60;1.00;;;;;;5053514;28;20096;-44
2022/05/15 13:14:39;;;;;;;14.45;10.32;;;35.80;1.00;;;;;;5053154;28;20021;-44
2022/05/15 13:17:06;;;;;;;12.10;10.85;;;36.00;1.00;;;;;;5053727;28;20430;-44
2022/05/15 13:19:43;;;;;;;10.90;9.90;;;36.00;1.00;;;;;;5068417;28;20116;-47
2022/05/15 13:22:15;;;;;;;11.57;10.25;;;37.00;1.00;;;;;;5069219;28;20029;-44
2022/05/15 13:24:41;;;;;;;10.60;9.70;;;37.60;1.00;;;;;;5052803;28;20047;-46